createdAt,value
2022-08-25T00:00:15.355Z,3.20
2022-08-25T00:03:03.498Z,3.80
2022-08-25T00:05:33.394Z,4.30
2022-08-25T00:08:06.497Z,3.20
2022-08-25T00:10:39.369Z,4.80
2022-08-25T00:13:07.799Z,3.70
2022-08-25T00:15:38.910Z,2.70
2022-08-25T00:18:11.538Z,5.10
2022-08-25T00:20:49.342Z,3.70
2022-08-25T00:23:18.967Z,3.50
2022-08-25T00:25:47.673Z,5.20
2022-08-25T00:28:16.866Z,3.70
2022-08-25T00:30:45.139Z,3.80
2022-08-25T00:33:13.988Z,4.50
2022-08-25T00:35:43.141Z,4.30
2022-08-25T00:38:12.741Z,3.60
2022-08-25T00:40:44.408Z,4.10
2022-08-25T00:43:12.704Z,3.50
2022-08-25T00:45:40.682Z,3.50
2022-08-25T00:48:08.751Z,4.70
2022-08-25T00:50:36.743Z,4.00
2022-08-25T00:53:05.943Z,4.20
2022-08-25T00:55:39.331Z,4.40
2022-08-25T00:58:16.409Z,4.00
2022-08-25T01:00:50.544Z,3.30
2022-08-25T01:03:20.041Z,6.70
2022-08-25T01:05:48.827Z,4.00
2022-08-25T01:08:24.311Z,5.90
2022-08-25T01:10:56.949Z,4.10
2022-08-25T01:13:40.926Z,5.30
2022-08-25T01:16:09.424Z,5.40
2022-08-25T01:18:58.147Z,4.10
2022-08-25T01:21:29.464Z,5.90
2022-08-25T01:24:00.417Z,4.60
2022-08-25T01:26:33.646Z,3.10
2022-08-25T01:29:26.835Z,3.70
2022-08-25T01:32:00.229Z,5.30
2022-08-25T01:34:33.142Z,6.80
2022-08-25T01:37:01.514Z,5.00
2022-08-25T01:39:33.925Z,6.50
2022-08-25T01:42:09.214Z,4.40
2022-08-25T01:44:46.974Z,5.50
2022-08-25T01:47:16.057Z,6.30
2022-08-25T01:49:44.303Z,5.00
2022-08-25T01:52:19.529Z,5.10
2022-08-25T01:54:49.270Z,7.50
2022-08-25T01:57:17.439Z,5.60
2022-08-25T01:59:46.016Z,6.00
2022-08-25T02:02:14.200Z,8.10
2022-08-25T02:04:44.494Z,5.80
2022-08-25T02:07:12.557Z,9.10
2022-08-25T02:09:40.911Z,4.90
2022-08-25T02:12:09.764Z,5.10
2022-08-25T02:14:38.049Z,6.40
2022-08-25T02:17:06.706Z,5.80
2022-08-25T02:19:34.596Z,6.90
2022-08-25T02:22:02.695Z,6.60
2022-08-25T02:24:30.900Z,6.40
2022-08-25T02:26:59.409Z,5.10
2022-08-25T02:29:27.290Z,5.30
2022-08-25T02:31:55.084Z,6.20
2022-08-25T02:34:23.331Z,5.10
2022-08-25T02:36:51.402Z,6.30
2022-08-25T02:39:19.180Z,9.70
2022-08-25T02:41:46.974Z,9.70
2022-08-25T02:44:16.244Z,7.50
2022-08-25T02:46:43.924Z,11.00
2022-08-25T02:49:11.705Z,6.90
2022-08-25T02:51:39.432Z,6.20
2022-08-25T02:54:07.285Z,6.00
2022-08-25T02:56:35.228Z,8.40
2022-08-25T02:59:03.537Z,11.50
2022-08-25T03:01:32.686Z,11.10
2022-08-25T03:04:02.367Z,13.60
2022-08-25T03:06:30.695Z,17.60
2022-08-25T03:08:59.322Z,13.40
2022-08-25T03:11:27.678Z,14.20
2022-08-25T03:13:56.430Z,16.00
2022-08-25T03:16:27.899Z,14.10
2022-08-25T03:18:57.025Z,14.20
2022-08-25T03:21:27.066Z,14.60
2022-08-25T03:23:56.651Z,14.70
2022-08-25T03:26:43.495Z,17.60
2022-08-25T03:29:11.506Z,15.90
2022-08-25T03:31:40.193Z,16.90
2022-08-25T03:34:08.006Z,16.30
2022-08-25T03:36:36.012Z,18.20
2022-08-25T03:39:05.209Z,19.80
2022-08-25T03:41:33.079Z,17.10
2022-08-25T03:44:03.995Z,21.30
2022-08-25T03:46:40.017Z,19.50
2022-08-25T03:49:12.681Z,17.50
2022-08-25T03:51:46.927Z,21.90
2022-08-25T03:54:19.335Z,18.70
2022-08-25T03:56:47.081Z,17.40
2022-08-25T03:59:15.396Z,19.30
2022-08-25T04:01:48.375Z,19.00
2022-08-25T04:04:18.441Z,20.10
2022-08-25T04:06:47.248Z,18.80
2022-08-25T04:09:14.990Z,17.60
2022-08-25T04:11:42.861Z,19.10
2022-08-25T04:14:13.773Z,19.30
2022-08-25T04:16:45.568Z,19.50
2022-08-25T04:19:14.332Z,19.50
2022-08-25T04:21:42.951Z,18.40
2022-08-25T04:24:13.125Z,18.20
2022-08-25T04:26:46.804Z,18.70
2022-08-25T04:29:19.745Z,18.50
2022-08-25T04:31:54.419Z,18.60
2022-08-25T04:34:29.918Z,22.70
2022-08-25T04:37:03.406Z,22.00
2022-08-25T04:39:31.805Z,23.20
2022-08-25T04:42:00.940Z,21.20
2022-08-25T04:44:30.921Z,21.70
2022-08-25T04:47:00.097Z,24.50
2022-08-25T04:49:28.707Z,22.40
2022-08-25T04:51:57.428Z,24.90
2022-08-25T04:54:25.558Z,26.50
2022-08-25T04:56:54.590Z,28.10
2022-08-25T04:59:30.399Z,25.70
2022-08-25T05:02:03.237Z,25.80
2022-08-25T05:04:35.974Z,26.50
2022-08-25T05:07:04.604Z,32.60
2022-08-25T05:09:33.300Z,33.20
2022-08-25T05:12:03.130Z,30.50
2022-08-25T05:14:32.556Z,31.00
2022-08-25T05:17:01.385Z,29.40
2022-08-25T05:19:29.932Z,27.70
2022-08-25T05:21:58.301Z,29.00
2022-08-25T05:24:27.971Z,29.00
2022-08-25T05:26:57.067Z,32.20
2022-08-25T05:29:24.920Z,28.80
2022-08-25T05:31:53.921Z,31.70
2022-08-25T05:34:22.260Z,29.90
2022-08-25T05:36:49.934Z,30.70
2022-08-25T05:39:17.947Z,32.40
2022-08-25T05:41:45.768Z,27.60
2022-08-25T05:44:15.911Z,30.40
2022-08-25T05:46:45.807Z,28.50
2022-08-25T05:49:13.575Z,31.90
2022-08-25T05:51:41.369Z,30.30
2022-08-25T05:54:09.121Z,29.80
2022-08-25T05:56:36.946Z,33.60
2022-08-25T05:59:09.143Z,32.70
2022-08-25T06:01:56.067Z,30.20
2022-08-25T06:04:24.419Z,33.00
2022-08-25T06:06:54.776Z,33.20
2022-08-25T06:09:22.874Z,34.00
2022-08-25T06:11:54.747Z,28.50
2022-08-25T06:14:24.684Z,30.30
2022-08-25T06:16:53.551Z,33.70
2022-08-25T06:19:23.455Z,37.00
2022-08-25T06:21:55.486Z,34.50
2022-08-25T06:24:27.353Z,33.60
2022-08-25T06:26:56.808Z,30.10
2022-08-25T06:29:25.386Z,32.20
2022-08-25T06:31:53.403Z,34.10
2022-08-25T06:34:24.197Z,33.10
2022-08-25T06:36:54.498Z,29.20
2022-08-25T06:39:24.305Z,32.90
2022-08-25T06:41:56.536Z,33.00
2022-08-25T06:44:29.263Z,33.10
2022-08-25T06:46:57.470Z,28.80
2022-08-25T06:49:31.884Z,29.60
2022-08-25T06:52:02.749Z,30.80
2022-08-25T06:54:30.514Z,26.80
2022-08-25T06:56:58.403Z,29.40
2022-08-25T06:59:32.278Z,29.50
2022-08-25T07:02:03.729Z,28.60
2022-08-25T07:04:33.114Z,33.10
2022-08-25T07:07:01.384Z,26.20
2022-08-25T07:09:29.549Z,26.60
2022-08-25T07:11:57.453Z,25.90
2022-08-25T07:14:25.447Z,27.20
2022-08-25T07:16:53.211Z,27.50
2022-08-25T07:19:21.305Z,25.40
2022-08-25T07:21:54.244Z,25.40
2022-08-25T07:24:25.994Z,25.10
2022-08-25T07:26:53.750Z,23.20
2022-08-25T07:29:32.917Z,21.90
2022-08-25T07:32:05.278Z,24.20
2022-08-25T07:37:47.493Z,26.00
2022-08-25T07:40:17.890Z,28.30
2022-08-25T07:42:46.021Z,23.60
2022-08-25T07:45:17.281Z,23.40
2022-08-25T07:47:51.887Z,20.10
2022-08-25T07:50:20.498Z,21.10
2022-08-25T07:52:52.266Z,20.00
2022-08-25T07:55:27.136Z,20.70
2022-08-25T07:57:57.294Z,14.30
2022-08-25T08:00:29.852Z,14.00
2022-08-25T08:02:58.536Z,12.90
2022-08-25T08:05:28.801Z,11.30
2022-08-25T08:07:57.593Z,11.40
2022-08-25T08:10:47.815Z,11.20
2022-08-25T08:13:18.073Z,8.60
2022-08-25T08:15:47.277Z,10.50
2022-08-25T08:18:16.249Z,10.60
2022-08-25T08:20:49.019Z,10.30
2022-08-25T08:23:17.712Z,11.30
2022-08-25T08:25:45.470Z,10.00
2022-08-25T08:28:13.401Z,10.80
2022-08-25T08:30:53.746Z,9.40
2022-08-25T08:33:24.304Z,8.60
2022-08-25T08:36:05.060Z,9.00
2022-08-25T08:38:35.968Z,8.40
2022-08-25T08:42:09.507Z,8.00
2022-08-25T08:44:46.079Z,8.00
2022-08-25T08:47:19.780Z,8.50
2022-08-25T08:50:39.923Z,7.40
2022-08-25T08:53:33.935Z,9.70
2022-08-25T08:56:11.731Z,8.70
2022-08-25T08:58:51.875Z,7.90
2022-08-25T09:01:29.471Z,8.80
2022-08-25T09:04:35.156Z,7.00
2022-08-25T09:07:14.319Z,7.90
2022-08-25T09:09:44.627Z,5.70
2022-08-25T09:12:33.535Z,3.70
2022-08-25T09:15:24.881Z,4.90
2022-08-25T09:18:31.532Z,4.70
2022-08-25T09:21:38.583Z,3.90
2022-08-25T09:24:12.165Z,3.40
2022-08-25T09:27:14.361Z,4.80
2022-08-25T09:30:10.107Z,4.70
2022-08-25T09:32:52.255Z,5.70
2022-08-25T09:35:27.292Z,11.00
2022-08-25T09:38:09.238Z,4.60
2022-08-25T09:40:48.726Z,4.50
2022-08-25T09:43:24.454Z,4.80
2022-08-25T09:46:01.729Z,3.90
2022-08-25T09:48:56.673Z,4.70
2022-08-25T09:51:37.984Z,4.20
2022-08-25T09:54:19.977Z,7.30
2022-08-25T09:56:57.089Z,6.20
2022-08-25T09:59:36.965Z,6.40
2022-08-25T10:02:28.613Z,4.10
2022-08-25T10:04:57.169Z,4.10
2022-08-25T10:07:52.099Z,5.60
2022-08-25T10:10:32.280Z,6.90
2022-08-25T10:13:03.462Z,4.00
2022-08-25T10:15:38.704Z,4.10
2022-08-25T10:18:15.709Z,4.40
2022-08-25T10:21:03.140Z,6.10
2022-08-25T10:23:34.427Z,5.30
2022-08-25T10:26:11.777Z,8.00
2022-08-25T10:29:15.818Z,34.10
2022-08-25T10:31:57.960Z,62.80
2022-08-25T10:34:37.387Z,45.70
2022-08-25T10:37:55.337Z,21.60
2022-08-25T10:40:46.159Z,7.70
2022-08-25T10:43:43.825Z,8.60
2022-08-25T10:46:39.519Z,8.20
2022-08-25T10:49:20.376Z,5.70
2022-08-25T10:52:18.965Z,5.70
2022-08-25T10:55:12.422Z,5.50
2022-08-25T10:58:14.882Z,5.30
2022-08-25T11:01:44.452Z,6.30
2022-08-25T11:04:47.167Z,6.90
2022-08-25T11:07:36.549Z,4.30
2022-08-25T11:10:16.019Z,4.40
2022-08-25T11:13:11.228Z,5.70
2022-08-25T11:16:15.528Z,5.00
2022-08-25T11:21:40.569Z,5.00
2022-08-25T11:24:43.726Z,6.10
2022-08-25T11:27:22.808Z,6.40
2022-08-25T11:30:07.090Z,7.80
2022-08-25T11:32:37.866Z,9.20
2022-08-25T11:35:12.144Z,8.70
2022-08-25T11:38:04.658Z,9.20
2022-08-25T11:41:15.301Z,8.80
2022-08-25T11:43:48.930Z,7.20
2022-08-25T11:46:30.357Z,10.90
2022-08-25T11:49:39.135Z,7.50
2022-08-25T11:52:32.836Z,5.00
2022-08-25T11:55:14.257Z,6.00
2022-08-25T11:57:48.724Z,5.00
2022-08-25T12:00:41.572Z,4.00
2022-08-25T12:03:36.934Z,3.60
2022-08-25T12:06:25.213Z,4.30
2022-08-25T12:09:07.780Z,6.30
2022-08-25T12:11:53.773Z,3.90
2022-08-25T12:14:28.174Z,7.20
2022-08-25T12:16:56.551Z,6.80
2022-08-25T12:19:35.559Z,5.90
2022-08-25T12:22:04.095Z,5.50
2022-08-25T12:24:47.584Z,5.90
2022-08-25T12:27:26.787Z,6.30
2022-08-25T12:30:06.154Z,4.90
2022-08-25T12:33:06.100Z,4.30
2022-08-25T12:36:05.120Z,3.50
2022-08-25T12:38:52.444Z,5.20
2022-08-25T12:41:27.432Z,4.50
2022-08-25T12:44:39.687Z,5.70
2022-08-25T12:47:32.634Z,4.80
2022-08-25T12:50:33.483Z,13.30
2022-08-25T12:53:28.753Z,5.30
2022-08-25T12:56:29.054Z,4.90
2022-08-25T12:59:22.491Z,4.30
2022-08-25T13:02:44.976Z,4.80
2022-08-25T13:06:08.134Z,4.70
2022-08-25T13:08:59.585Z,6.80
2022-08-25T13:11:49.889Z,5.70
2022-08-25T13:14:43.997Z,5.50
2022-08-25T13:17:38.817Z,4.80
2022-08-25T13:20:28.569Z,5.20
2022-08-25T13:23:01.025Z,6.20
2022-08-25T13:25:46.091Z,5.40
2022-08-25T13:28:28.512Z,8.40
2022-08-25T13:31:02.749Z,8.80
2022-08-25T13:33:31.069Z,10.10
2022-08-25T13:36:20.807Z,8.60
2022-08-25T13:38:50.372Z,8.40
2022-08-25T13:41:29.177Z,9.30
2022-08-25T13:44:01.017Z,8.70
2022-08-25T13:46:31.612Z,9.50
2022-08-25T13:49:07.081Z,9.50
2022-08-25T13:51:51.376Z,10.30
2022-08-25T13:54:30.907Z,11.80
2022-08-25T13:57:23.452Z,11.60
2022-08-25T14:00:11.935Z,9.90
2022-08-25T14:02:53.701Z,9.10
2022-08-25T14:05:40.950Z,11.40
2022-08-25T14:08:33.250Z,13.10
2022-08-25T14:13:45.426Z,20.00
2022-08-25T14:16:25.358Z,26.80
2022-08-25T14:18:58.895Z,24.80
2022-08-25T14:21:30.661Z,22.20
2022-08-25T14:23:59.863Z,16.00
2022-08-25T14:26:27.741Z,19.10
2022-08-25T14:28:56.062Z,19.20
2022-08-25T14:31:32.384Z,18.70
2022-08-25T14:34:12.701Z,18.30
2022-08-25T14:36:40.929Z,17.30
2022-08-25T14:39:11.446Z,18.80
2022-08-25T14:41:43.123Z,19.20
2022-08-25T14:44:13.783Z,17.90
2022-08-25T14:46:54.061Z,21.00
2022-08-25T14:49:32.718Z,20.80
2022-08-25T14:52:29.765Z,22.00
2022-08-25T14:54:57.700Z,16.70
2022-08-25T14:57:26.662Z,20.20
2022-08-25T14:59:54.798Z,19.90
2022-08-25T15:02:29.507Z,18.40
2022-08-25T15:05:06.437Z,20.10
2022-08-25T15:07:54.213Z,21.80
2022-08-25T15:10:22.424Z,17.50
2022-08-25T15:12:54.084Z,18.60
2022-08-25T15:15:26.320Z,18.50
2022-08-25T15:17:58.134Z,16.10
2022-08-25T15:20:29.154Z,17.80
2022-08-25T15:22:57.125Z,18.00
2022-08-25T15:25:24.890Z,15.80
2022-08-25T15:27:53.890Z,18.70
2022-08-25T15:30:21.954Z,18.60
2022-08-25T15:32:59.465Z,18.60
2022-08-25T15:35:29.210Z,15.90
2022-08-25T15:37:57.189Z,19.80
2022-08-25T15:40:25.609Z,16.70
2022-08-25T15:42:53.632Z,16.80
2022-08-25T15:45:23.758Z,17.80
2022-08-25T15:47:54.068Z,15.90
2022-08-25T15:50:26.023Z,14.50
2022-08-25T15:52:54.066Z,16.50
2022-08-25T15:55:21.948Z,17.90
2022-08-25T15:57:50.011Z,15.70
2022-08-25T16:00:18.551Z,16.00
2022-08-25T16:02:46.907Z,16.90
2022-08-25T16:05:16.215Z,15.30
2022-08-25T16:07:51.475Z,15.30
2022-08-25T16:10:19.781Z,14.10
2022-08-25T16:12:47.943Z,14.20
2022-08-25T16:15:16.143Z,14.30
2022-08-25T16:17:47.006Z,15.00
2022-08-25T16:20:17.271Z,13.80
2022-08-25T16:22:46.438Z,14.60
2022-08-25T16:25:15.370Z,14.50
2022-08-25T16:27:45.272Z,16.40
2022-08-25T16:30:17.741Z,15.80
2022-08-25T16:32:46.714Z,17.00
2022-08-25T16:35:14.573Z,15.40
2022-08-25T16:37:42.763Z,16.30
2022-08-25T16:40:14.859Z,15.00
2022-08-25T16:42:42.755Z,16.90
2022-08-25T16:45:11.817Z,15.80
2022-08-25T16:47:39.887Z,14.60
2022-08-25T16:50:11.026Z,16.90
2022-08-25T16:52:59.434Z,18.40
2022-08-25T16:55:38.704Z,16.50
2022-08-25T16:58:12.527Z,12.90
2022-08-25T17:00:41.689Z,15.00
2022-08-25T17:03:13.057Z,16.30
2022-08-25T17:05:42.990Z,16.10
2022-08-25T17:08:30.555Z,17.20
2022-08-25T17:11:30.817Z,13.80
2022-08-25T17:14:02.047Z,15.10
2022-08-25T17:16:35.610Z,15.00
2022-08-25T17:19:11.679Z,13.50
2022-08-25T17:21:44.960Z,14.50
2022-08-25T17:24:16.672Z,17.60
2022-08-25T17:29:14.853Z,12.30
2022-08-25T17:31:45.078Z,16.00
2022-08-25T17:34:16.549Z,12.80
2022-08-25T17:36:45.296Z,13.20
2022-08-25T17:39:17.900Z,12.90
2022-08-25T17:41:46.177Z,17.30
2022-08-25T17:44:15.637Z,14.70
2022-08-25T17:46:47.513Z,14.20
2022-08-25T17:49:17.378Z,15.20
2022-08-25T17:51:45.568Z,13.80
2022-08-25T17:54:13.685Z,15.20
2022-08-25T17:56:41.835Z,13.70
2022-08-25T17:59:10.221Z,13.90
2022-08-25T18:01:40.657Z,13.60
2022-08-25T18:04:16.901Z,16.90
2022-08-25T18:06:48.373Z,12.90
2022-08-25T18:09:17.749Z,15.20
2022-08-25T18:11:46.514Z,14.00
2022-08-25T18:14:16.514Z,15.20
2022-08-25T18:16:46.068Z,12.50
2022-08-25T18:19:14.631Z,11.90
2022-08-25T18:21:43.194Z,13.40
2022-08-25T18:24:13.342Z,16.30
2022-08-25T18:26:42.145Z,12.30
2022-08-25T18:29:13.454Z,11.60
2022-08-25T18:31:42.186Z,12.70
2022-08-25T18:34:11.504Z,11.20
2022-08-25T18:36:39.750Z,10.40
2022-08-25T18:39:26.279Z,11.30
2022-08-25T18:41:54.656Z,9.80
2022-08-25T18:44:22.434Z,9.70
2022-08-25T18:46:50.335Z,9.20
2022-08-25T18:49:18.550Z,10.40
2022-08-25T18:51:48.709Z,8.70
2022-08-25T18:54:22.784Z,7.60
2022-08-25T18:56:54.789Z,8.90
2022-08-25T19:01:54.001Z,6.90
2022-08-25T19:04:31.329Z,7.30
2022-08-25T19:07:01.887Z,6.60
2022-08-25T19:09:32.621Z,6.20
2022-08-25T19:12:01.167Z,6.80
2022-08-25T19:14:29.125Z,6.20
2022-08-25T19:16:58.815Z,7.10
2022-08-25T19:19:28.790Z,6.50
2022-08-25T19:21:58.132Z,5.50
2022-08-25T19:24:28.331Z,6.70
2022-08-25T19:26:57.846Z,7.30
2022-08-25T19:29:26.502Z,5.80
2022-08-25T19:32:01.178Z,5.40
2022-08-25T19:34:39.135Z,4.90
2022-08-25T19:37:11.924Z,5.90
2022-08-25T19:39:52.852Z,6.70
2022-08-25T19:42:32.706Z,5.70
2022-08-25T19:45:10.099Z,5.60
2022-08-25T19:47:38.541Z,5.10
2022-08-25T19:50:08.238Z,4.60
2022-08-25T19:52:37.876Z,5.40
2022-08-25T19:55:08.903Z,5.30
2022-08-25T19:57:42.771Z,4.70
2022-08-25T20:00:35.010Z,7.00
2022-08-25T20:03:05.233Z,4.60
2022-08-25T20:05:35.453Z,5.40
2022-08-25T20:08:05.506Z,6.80
2022-08-25T20:10:41.652Z,4.30
2022-08-25T20:13:09.914Z,5.80
2022-08-25T20:15:39.374Z,4.60
2022-08-25T20:18:07.650Z,6.40
2022-08-25T20:20:36.164Z,5.30
2022-08-25T20:23:23.266Z,6.80
2022-08-25T20:25:51.962Z,5.80
2022-08-25T20:28:19.790Z,5.10
2022-08-25T20:30:47.914Z,9.00
2022-08-25T20:33:22.634Z,4.50
2022-08-25T20:35:50.998Z,4.90
2022-08-25T20:38:21.327Z,6.40
2022-08-25T20:40:49.271Z,4.30
2022-08-25T20:43:20.818Z,4.60
2022-08-25T20:45:49.173Z,5.80
2022-08-25T20:48:17.576Z,7.10
2022-08-25T20:50:45.308Z,7.40
2022-08-25T20:53:26.344Z,5.10
2022-08-25T20:55:54.398Z,6.10
2022-08-25T20:58:22.157Z,7.10
2022-08-25T21:00:51.656Z,6.10
2022-08-25T21:03:20.538Z,6.50
2022-08-25T21:05:48.354Z,5.00
2022-08-25T21:08:21.940Z,7.30
2022-08-25T21:10:51.663Z,7.10
2022-08-25T21:13:19.445Z,7.80
2022-08-25T21:15:49.002Z,8.50
2022-08-25T21:18:16.802Z,9.30
2022-08-25T21:20:44.631Z,11.60
2022-08-25T21:23:12.405Z,10.00
2022-08-25T21:25:42.150Z,8.90
2022-08-25T21:28:10.731Z,6.90
2022-08-25T21:30:44.792Z,8.00
2022-08-25T21:33:15.380Z,8.30
2022-08-25T21:35:43.177Z,8.00
2022-08-25T21:38:10.968Z,9.40
2022-08-25T21:40:39.749Z,8.70
2022-08-25T21:43:12.616Z,9.20
2022-08-25T21:45:46.583Z,10.90
2022-08-25T21:48:16.385Z,7.90
2022-08-25T21:50:44.338Z,8.80
2022-08-25T21:53:12.798Z,8.90
2022-08-25T21:55:42.134Z,8.10
2022-08-25T21:58:10.011Z,10.10
2022-08-25T22:00:37.685Z,8.20
2022-08-25T22:03:05.602Z,10.80
2022-08-25T22:05:37.521Z,11.20
2022-08-25T22:10:33.253Z,10.20
2022-08-25T22:13:02.653Z,12.20
2022-08-25T22:15:30.447Z,12.20
2022-08-25T22:17:58.246Z,14.40
2022-08-25T22:20:26.019Z,12.60
2022-08-25T22:22:56.813Z,11.20
2022-08-25T22:25:25.043Z,15.40
2022-08-25T22:27:56.650Z,12.10
2022-08-25T22:30:26.100Z,13.40
2022-08-25T22:32:58.973Z,13.70
2022-08-25T22:35:28.187Z,15.30
2022-08-25T22:37:56.001Z,14.90
2022-08-25T22:40:23.854Z,13.50
2022-08-25T22:42:52.166Z,15.30
2022-08-25T22:45:20.594Z,13.60
2022-08-25T22:47:48.619Z,13.80
2022-08-25T22:50:20.006Z,16.90
2022-08-25T22:52:48.488Z,16.60
2022-08-25T22:55:16.808Z,20.90
2022-08-25T22:57:45.120Z,17.10
2022-08-25T23:00:15.446Z,17.60
2022-08-25T23:02:45.004Z,18.40
2022-08-25T23:05:15.542Z,16.50
2022-08-25T23:07:43.486Z,14.90
2022-08-25T23:10:13.210Z,16.50
2022-08-25T23:12:43.802Z,19.10
2022-08-25T23:15:13.142Z,17.60
2022-08-25T23:17:42.076Z,17.10
2022-08-25T23:20:29.444Z,15.80
2022-08-25T23:22:58.490Z,18.10
2022-08-25T23:25:26.416Z,17.10
2022-08-25T23:27:54.305Z,15.00
2022-08-25T23:30:22.471Z,15.90
2022-08-25T23:32:50.576Z,18.10
2022-08-25T23:35:18.291Z,15.00
2022-08-25T23:37:47.129Z,17.10
2022-08-25T23:40:19.184Z,15.20
2022-08-25T23:42:47.684Z,14.10
2022-08-25T23:45:16.611Z,13.50
2022-08-25T23:47:44.297Z,14.50
2022-08-25T23:50:12.019Z,17.00
2022-08-25T23:52:39.730Z,13.90
2022-08-25T23:55:07.863Z,14.30
2022-08-25T23:57:36.332Z,15.80
